IBE22IA LPFR-LEMG
Flight info
| Callsign | IBE22IA |
|---|---|
| Flight time | N/A |
| Altitude | 19000 |
| Route | NIRAK Y136 NAPES/N0389F180 N747 SVL |
| Aircraft | A320/M-SDE3FGHIRWY/LB1 |
Departure
| Time | 2026-05-06 16:49 |
|---|---|
| Airport | Faro - Gago Coutinho International Airport (LPFR) |
Arrival
| Time | N/A |
|---|---|
| Airport | Málaga-Costa del Sol Airport (LEMG) |
| Time | Latitude | Longitude | Altitude | Speed | Heading |
|---|---|---|---|---|---|
| 2026-05-06 16:24 | 37.01918 | -7.96837 | 20 ft | 0 kts | 10° |
| 2026-05-06 16:39 | 37.01903 | -7.96840 | 20 ft | 2 kts | 10° |
| 2026-05-06 16:40 | 37.01886 | -7.96844 | 21 ft | 2 kts | 10° |
| 2026-05-06 16:40 | 37.01869 | -7.96848 | 22 ft | 2 kts | 10° |
| 2026-05-06 16:40 | 37.01853 | -7.96851 | 21 ft | 2 kts | 37° |
| 2026-05-06 16:40 | 37.01844 | -7.96866 | 24 ft | 0 kts | 95° |
| 2026-05-06 16:41 | 37.01844 | -7.96861 | 24 ft | 1 kts | 95° |
| 2026-05-06 16:41 | 37.01843 | -7.96860 | 24 ft | 0 kts | 95° |
| 2026-05-06 16:43 | 37.01843 | -7.96856 | 20 ft | 2 kts | 95° |
| 2026-05-06 16:43 | 37.01827 | -7.96806 | 20 ft | 13 kts | 107° |
| 2026-05-06 16:44 | 37.01810 | -7.96695 | 20 ft | 12 kts | 99° |
| 2026-05-06 16:44 | 37.01796 | -7.96589 | 20 ft | 13 kts | 100° |
| 2026-05-06 16:44 | 37.01747 | -7.96519 | 20 ft | 11 kts | 171° |
| 2026-05-06 16:44 | 37.01677 | -7.96534 | 20 ft | 11 kts | 192° |
| 2026-05-06 16:45 | 37.01609 | -7.96461 | 22 ft | 19 kts | 101° |
| 2026-05-06 16:45 | 37.01587 | -7.96307 | 20 ft | 17 kts | 101° |
| 2026-05-06 16:45 | 37.01566 | -7.96166 | 21 ft | 16 kts | 99° |
| 2026-05-06 16:45 | 37.01549 | -7.96036 | 20 ft | 14 kts | 99° |
| 2026-05-06 16:46 | 37.01536 | -7.95940 | 20 ft | 0 kts | 98° |
| 2026-05-06 16:47 | 37.01536 | -7.95939 | 20 ft | 1 kts | 98° |
| 2026-05-06 16:47 | 37.01525 | -7.95880 | 22 ft | 14 kts | 110° |
| 2026-05-06 16:47 | 37.01452 | -7.95840 | 20 ft | 15 kts | 187° |
| 2026-05-06 16:48 | 37.01353 | -7.95889 | 20 ft | 12 kts | 260° |
| 2026-05-06 16:48 | 37.01378 | -7.96102 | 20 ft | 53 kts | 277° |
| 2026-05-06 16:48 | 37.01477 | -7.96828 | 22 ft | 114 kts | 281° |
| 2026-05-06 16:48 | 37.01641 | -7.97932 | 383 ft | 130 kts | 277° |
| 2026-05-06 16:49 | 37.01817 | -7.99040 | 1025 ft | 130 kts | 281° |
| 2026-05-06 16:49 | 37.01983 | -8.00190 | 1531 ft | 143 kts | 285° |
| 2026-05-06 16:49 | 37.02177 | -8.01509 | 1860 ft | 166 kts | 284° |
| 2026-05-06 16:49 | 37.02398 | -8.03017 | 2202 ft | 187 kts | 283° |
| 2026-05-06 16:50 | 37.02647 | -8.04713 | 2570 ft | 207 kts | 283° |
| 2026-05-06 16:50 | 37.02907 | -8.06508 | 3299 ft | 212 kts | 284° |
| 2026-05-06 16:50 | 37.02971 | -8.08409 | 3813 ft | 234 kts | 258° |
| 2026-05-06 16:50 | 37.02083 | -8.10240 | 4170 ft | 264 kts | 227° |
| 2026-05-06 16:51 | 37.00467 | -8.11468 | 4774 ft | 282 kts | 195° |
| 2026-05-06 16:51 | 36.98516 | -8.11543 | 5582 ft | 285 kts | 162° |
| 2026-05-06 16:51 | 36.96814 | -8.10342 | 6416 ft | 282 kts | 130° |
| 2026-05-06 16:51 | 36.95860 | -8.08248 | 7224 ft | 279 kts | 101° |
| 2026-05-06 16:52 | 36.95876 | -8.05848 | 8009 ft | 279 kts | 71° |
| 2026-05-06 16:52 | 36.96708 | -8.03669 | 8738 ft | 285 kts | 60° |
| 2026-05-06 16:52 | 36.97721 | -8.01471 | 9503 ft | 292 kts | 59° |
| 2026-05-06 16:52 | 36.98760 | -7.99249 | 10155 ft | 301 kts | 60° |
| 2026-05-06 16:53 | 36.99861 | -7.96903 | 10416 ft | 325 kts | 60° |
| 2026-05-06 16:53 | 37.01042 | -7.94374 | 10622 ft | 348 kts | 60° |
| 2026-05-06 16:53 | 37.02297 | -7.91671 | 10871 ft | 368 kts | 60° |
| 2026-05-06 16:53 | 37.03592 | -7.88864 | 11412 ft | 376 kts | 60° |
| 2026-05-06 16:54 | 37.04907 | -7.85997 | 12040 ft | 382 kts | 60° |
| 2026-05-06 16:54 | 37.06238 | -7.83094 | 12757 ft | 386 kts | 60° |
| 2026-05-06 16:54 | 37.07567 | -7.80197 | 13400 ft | 391 kts | 60° |
| 2026-05-06 16:54 | 37.08928 | -7.77231 | 14033 ft | 395 kts | 60° |
| 2026-05-06 16:55 | 37.10320 | -7.74196 | 14614 ft | 399 kts | 60° |
| 2026-05-06 16:55 | 37.11704 | -7.71169 | 15212 ft | 402 kts | 60° |
| 2026-05-06 16:55 | 37.13083 | -7.68149 | 15783 ft | 406 kts | 60° |
| 2026-05-06 16:55 | 37.14490 | -7.65065 | 16361 ft | 410 kts | 60° |
| 2026-05-06 16:56 | 37.15911 | -7.61944 | 16917 ft | 413 kts | 60° |
| 2026-05-06 16:56 | 37.17341 | -7.58804 | 17463 ft | 417 kts | 60° |